Time;durP1;ratioP1;P1;durP2;ratioP2;P2;SDS_P1;SDS_P2;PMS_P1;PMS_P2;Temp;Humidity;BMP_temperature;BMP_pressure;BME280_temperature;BME280_humidity;BME280_pressure;Samples;Min_cycle;Max_cycle;Signal;HPM_P1;HPM_P2
2021/07/18 00:01:02;;;;;;;3.95;1.73;;;20.10;94.60;;;;;;5120260;27;20035;-85
2021/07/18 00:03:27;;;;;;;3.85;1.25;;;20.10;94.60;;;;;;5136907;27;20027;-85
2021/07/18 00:05:53;;;;;;;3.83;1.25;;;20.10;94.70;;;;;;5119332;27;20050;-85
2021/07/18 00:08:18;;;;;;;10.05;2.03;;;20.00;94.70;;;;;;5136805;27;20031;-86
2021/07/18 00:10:44;;;;;;;6.40;1.42;;;20.00;94.80;;;;;;5119101;27;20382;-85
2021/07/18 00:13:09;;;;;;;4.05;1.35;;;20.00;94.90;;;;;;5120160;27;20425;-85
2021/07/18 00:15:35;;;;;;;4.75;1.45;;;20.00;95.00;;;;;;5137433;27;20374;-86
2021/07/18 00:18:00;;;;;;;4.55;1.88;;;19.90;95.10;;;;;;5132321;27;20041;-86
2021/07/18 00:20:26;;;;;;;5.72;2.15;;;19.90;95.30;;;;;;5129970;27;20110;-85
2021/07/18 00:22:51;;;;;;;4.97;1.75;;;19.80;95.40;;;;;;5136059;27;20043;-85
2021/07/18 00:25:17;;;;;;;7.18;2.33;;;19.80;95.40;;;;;;5133752;27;20523;-85
2021/07/18 00:27:42;;;;;;;3.53;2.08;;;19.70;95.60;;;;;;5119215;27;20050;-85
2021/07/18 00:30:08;;;;;;;8.63;1.58;;;19.70;95.60;;;;;;5137285;27;20038;-86
2021/07/18 00:32:34;;;;;;;6.20;1.63;;;19.70;95.70;;;;;;5119131;27;20035;-85
2021/07/18 00:34:59;;;;;;;2.78;1.95;;;19.70;95.80;;;;;;5137928;27;20031;-85
2021/07/18 00:37:25;;;;;;;4.95;1.48;;;19.70;96.00;;;;;;5119156;27;20473;-85
2021/07/18 00:39:51;;;;;;;3.50;1.55;;;19.70;96.10;;;;;;5136883;27;20038;-85
2021/07/18 00:42:17;;;;;;;5.57;1.63;;;19.60;96.20;;;;;;5119397;27;20442;-85
2021/07/18 00:44:43;;;;;;;3.00;2.28;;;19.60;96.40;;;;;;5117100;27;20074;-85
2021/07/18 00:47:09;;;;;;;4.60;2.17;;;19.50;96.70;;;;;;5119990;27;20063;-85
2021/07/18 00:49:37;;;;;;;4.57;1.88;;;19.50;96.80;;;;;;5128945;27;20166;-86
2021/07/18 00:52:03;;;;;;;7.82;2.28;;;19.40;96.90;;;;;;5127862;27;20031;-84
2021/07/18 00:54:29;;;;;;;4.32;1.73;;;19.40;97.30;;;;;;5119522;27;20099;-85
2021/07/18 00:56:55;;;;;;;4.45;2.13;;;19.40;97.10;;;;;;5132995;27;20118;-85
2021/07/18 00:59:20;;;;;;;4.30;1.40;;;19.40;97.30;;;;;;5114538;27;20118;-86
2021/07/18 01:01:46;;;;;;;7.45;2.00;;;19.40;97.30;;;;;;5120360;28;20042;-85
2021/07/18 01:04:12;;;;;;;5.22;2.08;;;19.30;97.50;;;;;;5116927;28;20042;-87
2021/07/18 01:06:37;;;;;;;3.05;1.58;;;19.30;97.70;;;;;;5119322;28;20062;-86
2021/07/18 01:09:03;;;;;;;11.40;2.95;;;19.20;98.00;;;;;;5136358;28;20127;-86
2021/07/18 01:11:29;;;;;;;2.05;1.52;;;19.20;97.90;;;;;;5119451;28;20084;-86
2021/07/18 01:13:54;;;;;;;4.15;1.70;;;19.10;98.00;;;;;;5118619;28;20035;-87
2021/07/18 01:16:20;;;;;;;6.45;2.33;;;19.10;98.40;;;;;;5134683;28;20087;-84
2021/07/18 01:18:45;;;;;;;3.92;1.73;;;19.00;98.30;;;;;;5125323;28;20039;-84
2021/07/18 01:21:11;;;;;;;5.70;2.08;;;19.00;98.40;;;;;;5132232;28;20123;-87
2021/07/18 01:23:39;;;;;;;5.32;2.70;;;18.90;98.50;;;;;;5115141;28;20340;-84
2021/07/18 01:26:05;;;;;;;4.65;2.38;;;18.90;98.60;;;;;;5124121;28;20405;-84
2021/07/18 01:28:31;;;;;;;10.85;2.20;;;18.90;98.70;;;;;;5138655;27;20072;-86
2021/07/18 01:30:56;;;;;;;3.72;2.03;;;18.90;98.70;;;;;;5123020;27;20297;-84
2021/07/18 01:33:22;;;;;;;7.35;2.55;;;18.80;98.80;;;;;;5141176;27;20039;-85
2021/07/18 01:35:48;;;;;;;6.20;2.28;;;18.80;98.90;;;;;;5139737;27;20043;-84
2021/07/18 01:38:14;;;;;;;9.13;2.63;;;18.70;98.90;;;;;;5120593;28;20062;-85
2021/07/18 01:40:40;;;;;;;7.68;2.30;;;18.70;99.10;;;;;;5119772;27;20089;-84
2021/07/18 01:43:06;;;;;;;8.45;2.35;;;18.60;99.10;;;;;;5123779;27;20428;-84
2021/07/18 01:45:31;;;;;;;4.45;2.00;;;18.60;99.50;;;;;;5140448;27;20059;-85
2021/07/18 01:47:57;;;;;;;7.13;2.42;;;18.50;99.30;;;;;;5122963;27;20027;-85
2021/07/18 01:50:23;;;;;;;3.72;2.67;;;18.50;99.30;;;;;;5123101;27;20035;-86
2021/07/18 01:52:49;;;;;;;6.22;2.20;;;18.50;99.20;;;;;;5135320;27;20051;-85
2021/07/18 01:55:19;;;;;;;6.43;1.75;;;18.40;99.10;;;;;;5123083;27;20042;-84
2021/07/18 01:57:45;;;;;;;7.82;2.67;;;18.40;99.10;;;;;;5122209;27;20128;-86
2021/07/18 02:00:13;;;;;;;5.90;1.95;;;18.30;99.10;;;;;;5140809;27;20173;-85
2021/07/18 02:02:43;;;;;;;9.07;2.25;;;18.30;99.20;;;;;;5110954;27;20031;-84
2021/07/18 02:05:10;;;;;;;5.35;2.10;;;18.30;99.20;;;;;;5121828;27;20027;-85
2021/07/18 02:07:35;;;;;;;5.20;2.15;;;18.20;99.00;;;;;;5119254;27;20045;-84
2021/07/18 02:10:01;;;;;;;3.85;1.90;;;18.10;99.20;;;;;;5136545;27;20110;-84
2021/07/18 02:12:27;;;;;;;5.20;1.80;;;18.10;99.20;;;;;;5124031;27;20129;-84
2021/07/18 02:14:52;;;;;;;6.20;2.17;;;18.10;99.20;;;;;;5122465;27;20035;-85
2021/07/18 02:17:17;;;;;;;6.57;1.73;;;18.10;99.10;;;;;;5121137;27;20043;-84
2021/07/18 02:19:43;;;;;;;3.95;2.53;;;18.10;99.10;;;;;;5136831;27;20039;-84
2021/07/18 02:22:10;;;;;;;6.05;2.13;;;18.10;99.00;;;;;;5119286;28;20344;-86
2021/07/18 02:24:35;;;;;;;2.83;1.50;;;18.00;99.00;;;;;;5132740;27;20032;-86
2021/07/18 02:27:01;;;;;;;5.43;2.75;;;18.00;98.90;;;;;;5138613;27;20036;-85
2021/07/18 02:29:26;;;;;;;8.30;2.38;;;18.00;99.00;;;;;;5131292;27;20041;-86
2021/07/18 02:31:55;;;;;;;4.68;1.75;;;17.90;99.00;;;;;;5130135;27;20294;-85
2021/07/18 02:34:21;;;;;;;6.78;2.22;;;17.90;99.00;;;;;;5140088;27;20027;-85
2021/07/18 02:36:46;;;;;;;11.10;1.98;;;17.90;99.10;;;;;;5138662;27;20031;-84
2021/07/18 02:39:13;;;;;;;3.38;1.48;;;17.90;99.10;;;;;;5132019;27;20039;-85
2021/07/18 02:41:38;;;;;;;5.55;1.90;;;17.80;99.10;;;;;;5118538;27;20036;-85
2021/07/18 02:44:06;;;;;;;6.43;2.55;;;17.70;99.10;;;;;;5121301;27;20294;-86
2021/07/18 02:46:32;;;;;;;3.28;2.00;;;17.70;99.10;;;;;;5123457;27;20470;-84
2021/07/18 02:48:57;;;;;;;4.63;1.92;;;17.80;99.00;;;;;;5138597;27;20398;-85
2021/07/18 02:51:23;;;;;;;5.10;1.90;;;17.70;99.00;;;;;;5118389;28;20047;-84
2021/07/18 02:53:48;;;;;;;5.82;1.90;;;17.70;99.10;;;;;;5137458;27;20046;-85
2021/07/18 02:56:14;;;;;;;4.20;1.63;;;17.70;99.30;;;;;;5138520;27;20030;-84
2021/07/18 02:58:39;;;;;;;8.23;1.90;;;17.60;99.00;;;;;;5135444;27;20044;-86
2021/07/18 03:01:05;;;;;;;4.03;2.28;;;17.60;99.00;;;;;;5137515;27;20049;-86
2021/07/18 03:03:30;;;;;;;3.33;1.92;;;17.60;99.00;;;;;;5122370;27;20031;-86
2021/07/18 03:05:56;;;;;;;4.25;1.92;;;17.60;98.90;;;;;;5120498;27;20031;-87
2021/07/18 03:08:21;;;;;;;2.53;1.80;;;17.60;98.90;;;;;;5138701;27;20305;-85
2021/07/18 03:10:47;;;;;;;3.83;1.92;;;17.50;98.90;;;;;;5120655;27;20043;-86
2021/07/18 03:13:12;;;;;;;4.40;2.08;;;17.50;99.00;;;;;;5118050;28;20329;-86
2021/07/18 03:15:38;;;;;;;4.65;1.98;;;17.50;99.00;;;;;;5120133;27;20103;-86
2021/07/18 03:18:06;;;;;;;5.35;2.83;;;17.40;99.00;;;;;;5121361;27;20035;-85
2021/07/18 03:20:32;;;;;;;5.43;1.63;;;17.40;99.00;;;;;;5132244;27;20302;-84
2021/07/18 03:22:58;;;;;;;2.80;1.60;;;17.40;99.10;;;;;;5135933;27;20050;-84
2021/07/18 03:25:23;;;;;;;3.92;1.88;;;17.30;99.10;;;;;;5119286;27;20035;-85
2021/07/18 03:27:49;;;;;;;6.60;1.88;;;17.40;99.00;;;;;;5117592;28;20040;-85
2021/07/18 03:30:16;;;;;;;4.38;2.20;;;17.30;99.00;;;;;;5120721;27;20062;-85
2021/07/18 03:32:42;;;;;;;6.43;2.60;;;17.30;99.10;;;;;;5120053;27;20042;-84
2021/07/18 03:35:08;;;;;;;3.45;2.00;;;17.30;99.10;;;;;;5120547;27;20047;-84
2021/07/18 03:37:35;;;;;;;5.85;2.65;;;17.30;99.10;;;;;;5117654;27;20444;-84
2021/07/18 03:40:00;;;;;;;3.10;1.65;;;17.30;99.10;;;;;;5138217;27;20099;-84
2021/07/18 03:42:26;;;;;;;3.95;1.83;;;17.30;99.10;;;;;;5118987;28;20410;-84
2021/07/18 03:44:51;;;;;;;4.80;1.95;;;17.20;99.20;;;;;;5121190;27;20039;-85
2021/07/18 03:47:17;;;;;;;3.17;1.48;;;17.20;99.10;;;;;;5124424;27;20031;-84
2021/07/18 03:49:42;;;;;;;6.47;2.08;;;17.20;99.10;;;;;;5119518;27;20043;-85
2021/07/18 03:52:08;;;;;;;4.25;1.80;;;17.20;99.20;;;;;;5120335;27;20045;-84
2021/07/18 03:54:33;;;;;;;3.60;1.55;;;17.20;99.20;;;;;;5129281;27;20035;-86
2021/07/18 03:56:59;;;;;;;6.25;2.42;;;17.20;99.20;;;;;;5119862;27;20047;-84
2021/07/18 03:59:24;;;;;;;2.72;1.83;;;17.20;99.20;;;;;;5118868;27;20039;-85
2021/07/18 04:01:50;;;;;;;2.83;1.52;;;17.20;99.20;;;;;;5126455;27;20034;-83
2021/07/18 04:04:16;;;;;;;4.97;1.90;;;17.20;99.10;;;;;;5135456;27;20031;-84
2021/07/18 04:06:41;;;;;;;4.30;1.73;;;17.20;99.20;;;;;;5119668;27;20035;-84
2021/07/18 04:09:07;;;;;;;4.90;2.67;;;17.20;99.20;;;;;;5119141;27;20034;-85
2021/07/18 04:11:32;;;;;;;2.92;1.90;;;17.20;99.30;;;;;;5120152;27;20039;-84
2021/07/18 04:13:58;;;;;;;5.68;1.90;;;17.20;99.40;;;;;;5118186;28;20212;-87
2021/07/18 04:16:23;;;;;;;7.60;1.98;;;17.20;99.40;;;;;;5131934;27;20042;-86
2021/07/18 04:18:49;;;;;;;2.88;1.95;;;17.20;99.40;;;;;;5120055;27;20437;-84
2021/07/18 04:21:19;;;;;;;5.53;2.33;;;17.20;99.40;;;;;;5137133;27;20058;-86
2021/07/18 04:23:46;;;;;;;4.30;1.92;;;17.20;99.40;;;;;;5135523;27;20329;-86
2021/07/18 04:26:11;;;;;;;4.03;2.47;;;17.20;99.50;;;;;;5137169;27;20034;-86
2021/07/18 04:28:37;;;;;;;4.72;2.05;;;17.20;99.50;;;;;;5132237;27;20035;-86
2021/07/18 04:31:02;;;;;;;3.53;2.10;;;17.20;99.60;;;;;;5133431;27;20043;-87
2021/07/18 04:33:28;;;;;;;7.10;2.55;;;17.20;99.50;;;;;;5119564;27;20398;-85
2021/07/18 04:35:53;;;;;;;5.80;2.30;;;17.30;99.60;;;;;;5126027;27;20135;-86
2021/07/18 04:38:20;;;;;;;3.90;2.17;;;17.30;99.50;;;;;;5110665;28;20055;-86
2021/07/18 04:40:45;;;;;;;3.67;2.47;;;17.30;99.50;;;;;;5117172;27;20290;-85
2021/07/18 04:43:11;;;;;;;5.68;2.70;;;17.30;99.40;;;;;;5118246;27;20122;-84
2021/07/18 04:45:36;;;;;;;4.10;2.08;;;17.40;99.50;;;;;;5130642;27;20069;-85
2021/07/18 04:48:02;;;;;;;5.40;2.08;;;17.40;99.50;;;;;;5137042;27;20039;-85
2021/07/18 04:50:28;;;;;;;3.35;1.95;;;17.40;99.50;;;;;;5119341;27;20317;-87
2021/07/18 04:52:53;;;;;;;4.90;2.95;;;17.50;99.50;;;;;;5131102;27;20054;-87
2021/07/18 04:55:19;;;;;;;4.53;2.25;;;17.50;99.50;;;;;;5137612;27;20070;-86
2021/07/18 04:57:45;;;;;;;5.93;2.33;;;17.50;99.60;;;;;;5119203;27;20047;-86
2021/07/18 05:00:15;;;;;;;2.80;2.28;;;17.60;99.50;;;;;;5132930;27;20032;-85
2021/07/18 05:02:41;;;;;;;3.58;2.40;;;17.60;99.50;;;;;;5131588;27;20305;-87
2021/07/18 05:05:08;;;;;;;5.93;2.40;;;17.60;99.60;;;;;;5118333;28;20038;-85
2021/07/18 05:07:44;;;;;;;10.98;2.75;;;17.60;99.60;;;;;;5128396;28;20066;-85
2021/07/18 05:10:09;;;;;;;5.65;3.20;;;17.70;99.60;;;;;;5119027;28;20050;-86
2021/07/18 05:12:35;;;;;;;9.15;2.88;;;17.70;99.60;;;;;;5131819;28;20039;-86
2021/07/18 05:15:00;;;;;;;5.47;2.42;;;17.70;99.60;;;;;;5135466;28;20122;-86
2021/07/18 05:17:25;;;;;;;5.50;2.67;;;17.80;99.70;;;;;;5116953;28;20058;-86
2021/07/18 05:19:51;;;;;;;4.57;2.50;;;17.80;99.70;;;;;;5112831;28;20110;-87
2021/07/18 05:22:16;;;;;;;7.00;2.88;;;17.90;99.50;;;;;;5117624;28;20401;-86
2021/07/18 05:24:42;;;;;;;3.28;2.30;;;18.00;99.50;;;;;;5125455;28;20043;-86
2021/07/18 05:27:08;;;;;;;6.05;2.40;;;18.00;99.50;;;;;;5110298;28;20035;-86
2021/07/18 05:29:33;;;;;;;5.35;2.63;;;18.10;99.50;;;;;;5117610;28;20050;-85
2021/07/18 05:31:59;;;;;;;5.03;2.70;;;18.10;99.30;;;;;;5118477;28;20122;-86
2021/07/18 05:34:24;;;;;;;8.02;2.55;;;18.20;99.20;;;;;;5118253;28;20062;-86
2021/07/18 05:36:50;;;;;;;5.65;3.17;;;18.30;99.40;;;;;;5117851;28;20124;-85
2021/07/18 05:39:15;;;;;;;8.52;3.45;;;18.40;99.00;;;;;;5135656;28;20039;-86
2021/07/18 05:41:41;;;;;;;6.35;3.70;;;18.40;99.00;;;;;;5115326;28;20094;-87
2021/07/18 05:44:06;;;;;;;6.40;3.15;;;18.40;99.00;;;;;;5117831;28;20120;-86
2021/07/18 05:46:32;;;;;;;8.52;3.38;;;18.40;99.00;;;;;;5129390;28;20108;-86
2021/07/18 05:48:57;;;;;;;6.07;3.15;;;18.40;99.10;;;;;;5134804;28;20039;-85
2021/07/18 05:51:23;;;;;;;8.15;3.50;;;18.40;99.10;;;;;;5136541;28;20046;-85
2021/07/18 05:53:49;;;;;;;8.52;4.13;;;18.50;99.00;;;;;;5117029;28;20039;-85
2021/07/18 05:56:15;;;;;;;7.35;3.67;;;18.60;99.00;;;;;;5115087;28;20465;-84
2021/07/18 05:58:40;;;;;;;10.25;4.72;;;18.60;98.70;;;;;;5124308;28;20134;-85
2021/07/18 06:01:06;;;;;;;4.78;3.60;;;18.70;98.70;;;;;;5113405;28;20078;-87
2021/07/18 06:03:32;;;;;;;7.05;3.65;;;18.80;98.90;;;;;;5120439;28;20352;-86
2021/07/18 06:05:57;;;;;;;6.15;4.32;;;18.80;98.60;;;;;;5116092;28;20047;-84
2021/07/18 06:08:23;;;;;;;7.30;5.05;;;18.90;98.40;;;;;;5125866;28;20053;-84
2021/07/18 06:10:49;;;;;;;7.03;3.78;;;18.90;98.40;;;;;;5135752;28;20046;-84
2021/07/18 06:13:14;;;;;;;8.93;4.75;;;19.00;98.10;;;;;;5132250;27;20031;-88
2021/07/18 06:15:40;;;;;;;6.13;3.47;;;19.00;98.00;;;;;;5121751;27;20039;-85
2021/07/18 06:18:05;;;;;;;7.75;3.75;;;19.00;98.10;;;;;;5131882;27;20336;-86
2021/07/18 06:20:31;;;;;;;5.50;2.95;;;19.10;98.20;;;;;;5121087;27;20038;-85
2021/07/18 06:22:57;;;;;;;8.55;3.65;;;19.20;98.10;;;;;;5121988;27;20042;-86
2021/07/18 06:25:23;;;;;;;8.07;3.83;;;19.30;97.80;;;;;;5120309;27;20034;-85
2021/07/18 06:27:49;;;;;;;6.53;3.50;;;19.30;98.00;;;;;;5120345;27;20035;-85
2021/07/18 06:30:15;;;;;;;7.30;2.78;;;19.40;97.70;;;;;;5123579;27;20039;-86
2021/07/18 06:32:41;;;;;;;6.70;3.97;;;19.50;97.40;;;;;;5133193;27;20310;-85
2021/07/18 06:35:08;;;;;;;7.43;4.03;;;19.60;97.10;;;;;;5137312;27;20068;-86
2021/07/18 06:37:34;;;;;;;4.90;3.17;;;19.70;97.00;;;;;;5123530;28;20051;-85
2021/07/18 06:40:01;;;;;;;8.45;3.40;;;19.60;97.00;;;;;;5126724;27;20039;-85
2021/07/18 06:42:27;;;;;;;4.88;3.13;;;19.70;97.00;;;;;;5129137;27;20282;-87
2021/07/18 06:44:53;;;;;;;5.47;3.20;;;19.80;96.90;;;;;;5123289;27;20032;-87
2021/07/18 06:47:18;;;;;;;5.72;2.90;;;19.90;96.80;;;;;;5120054;27;20406;-87
2021/07/18 06:49:46;;;;;;;3.53;2.85;;;19.90;97.00;;;;;;5122760;27;20126;-85
2021/07/18 06:52:12;;;;;;;5.03;2.70;;;20.10;97.10;;;;;;5114773;27;20120;-88
2021/07/18 06:54:37;;;;;;;5.68;3.08;;;20.20;96.70;;;;;;5121803;28;20453;-87
2021/07/18 06:57:05;;;;;;;6.03;3.25;;;20.30;96.50;;;;;;5103822;28;20036;-87
2021/07/18 06:59:31;;;;;;;3.53;2.85;;;20.40;95.90;;;;;;5105031;28;20067;-88
2021/07/18 07:02:09;;;;;;;6.30;3.33;;;20.40;96.00;;;;;;5121695;28;20096;-88
2021/07/18 07:04:37;;;;;;;8.45;3.28;;;20.40;95.70;;;;;;5113131;27;20069;-87
2021/07/18 07:07:06;;;;;;;3.60;2.33;;;20.50;95.80;;;;;;5123811;27;20039;-87
2021/07/18 07:09:49;;;;;;;5.78;3.05;;;20.40;95.30;;;;;;5121264;27;20104;-87
2021/07/18 07:12:15;;;;;;;7.55;2.95;;;20.40;95.50;;;;;;5126643;27;20055;-86
2021/07/18 07:14:41;;;;;;;7.32;3.80;;;20.50;95.80;;;;;;5133073;27;20032;-86
2021/07/18 07:17:17;;;;;;;4.55;2.67;;;20.60;95.60;;;;;;5124203;27;20038;-88
2021/07/18 07:19:42;;;;;;;5.50;2.53;;;20.70;95.20;;;;;;5121215;27;20035;-84
2021/07/18 07:22:10;;;;;;;5.10;3.10;;;20.80;94.80;;;;;;5125436;27;20050;-86
2021/07/18 07:24:39;;;;;;;5.68;2.88;;;20.90;95.00;;;;;;5117029;28;20150;-87
2021/07/18 07:27:05;;;;;;;4.18;2.83;;;21.00;94.70;;;;;;5123858;27;20038;-86
2021/07/18 07:29:31;;;;;;;6.53;3.15;;;21.10;94.70;;;;;;5124594;27;20038;-87
2021/07/18 07:32:05;;;;;;;4.60;2.58;;;21.20;94.30;;;;;;5123270;27;20062;-87
2021/07/18 07:34:31;;;;;;;6.43;2.97;;;21.20;94.50;;;;;;5122446;28;20039;-88
2021/07/18 07:36:56;;;;;;;4.63;2.92;;;21.30;94.60;;;;;;5143855;27;20407;-88
2021/07/18 07:39:22;;;;;;;7.18;2.85;;;21.40;94.60;;;;;;5123679;27;20067;-86
2021/07/18 07:41:48;;;;;;;6.18;2.33;;;21.50;94.10;;;;;;5122268;27;20039;-85
2021/07/18 07:44:14;;;;;;;4.00;2.33;;;21.60;94.30;;;;;;5122898;27;20035;-87
2021/07/18 07:46:39;;;;;;;6.50;2.50;;;21.70;94.10;;;;;;5119182;27;20093;-86
2021/07/18 07:49:05;;;;;;;5.43;2.35;;;21.70;93.80;;;;;;5129308;27;20062;-87
2021/07/18 07:51:33;;;;;;;4.80;2.75;;;21.80;93.40;;;;;;5115374;28;20039;-86
2021/07/18 07:54:24;;;;;;;6.80;2.80;;;21.80;94.10;;;;;;5118608;28;20315;-86
2021/07/18 07:57:13;;;;;;;5.28;2.50;;;21.90;94.10;;;;;;5118174;27;20474;-86
2021/07/18 07:59:50;;;;;;;3.78;2.80;;;22.00;93.80;;;;;;5138436;27;20046;-88
2021/07/18 08:02:16;;;;;;;8.85;2.58;;;22.10;93.30;;;;;;5121117;27;20035;-87
2021/07/18 08:04:41;;;;;;;4.35;2.40;;;22.10;92.90;;;;;;5118871;27;20042;-87
2021/07/18 08:07:12;;;;;;;6.72;2.83;;;22.10;93.40;;;;;;5121055;27;20039;-87
2021/07/18 08:09:38;;;;;;;4.57;2.50;;;22.10;93.00;;;;;;5125724;27;20027;-86
2021/07/18 08:12:05;;;;;;;2.72;2.15;;;22.10;93.00;;;;;;5137013;27;20054;-86
2021/07/18 08:14:35;;;;;;;5.93;2.92;;;22.20;93.10;;;;;;5137986;27;20063;-87
2021/07/18 08:17:13;;;;;;;4.70;2.60;;;22.20;92.90;;;;;;5121434;27;20099;-87
2021/07/18 08:19:52;;;;;;;5.47;2.53;;;22.20;93.10;;;;;;5119952;27;20107;-86
2021/07/18 08:25:24;;;;;;;3.88;2.08;;;22.40;93.10;;;;;;5141480;27;20032;-88
2021/07/18 08:27:50;;;;;;;10.60;3.50;;;22.50;92.90;;;;;;5117991;27;20035;-87
2021/07/18 08:30:25;;;;;;;4.07;2.38;;;22.60;92.60;;;;;;5120394;27;20049;-89
2021/07/18 08:33:27;;;;;;;4.38;2.28;;;22.60;92.30;;;;;;5137663;27;20035;-87
2021/07/18 08:35:58;;;;;;;2.70;2.03;;;22.60;92.60;;;;;;5123728;27;20053;-87
2021/07/18 08:38:28;;;;;;;3.38;1.83;;;22.60;92.60;;;;;;5127637;27;20050;-88
2021/07/18 08:42:03;;;;;;;;;;;;;;;;;;;;;
2021/07/18 08:44:45;;;;;;;4.90;2.30;;;22.90;92.90;;;;;;5116889;27;20037;-88
2021/07/18 08:47:11;;;;;;;4.93;1.52;;;23.10;92.10;;;;;;5133983;27;20093;-86
2021/07/18 08:49:44;;;;;;;2.13;1.38;;;23.30;91.40;;;;;;5108367;28;20709;-88
2021/07/18 08:52:14;;;;;;;7.65;2.03;;;23.40;91.40;;;;;;5119831;28;20031;-87
2021/07/18 08:54:47;;;;;;;5.20;1.50;;;23.60;91.40;;;;;;5120328;27;20053;-87
2021/07/18 08:57:31;;;;;;;5.20;1.90;;;23.80;90.90;;;;;;5120490;27;20066;-89
2021/07/18 09:00:55;;;;;;;3.75;1.65;;;23.90;91.00;;;;;;5123575;27;20046;-89
2021/07/18 09:03:27;;;;;;;3.58;1.35;;;24.10;90.60;;;;;;5116357;27;20090;-89
2021/07/18 09:06:10;;;;;;;4.20;1.38;;;24.20;90.20;;;;;;5114309;28;20673;-89
2021/07/18 09:08:50;;;;;;;3.40;1.20;;;24.30;90.20;;;;;;5118440;27;20042;-88
2021/07/18 09:11:55;;;;;;;2.75;1.42;;;24.40;89.20;;;;;;5111075;28;20058;-89
2021/07/18 09:14:32;;;;;;;1.67;1.25;;;24.50;89.10;;;;;;5117815;28;20102;-87
2021/07/18 09:17:04;;;;;;;3.55;1.65;;;24.60;85.70;;;;;;5120404;28;20039;-88
2021/07/18 09:19:35;;;;;;;4.10;1.58;;;24.60;89.20;;;;;;5117403;27;20179;-87
2021/07/18 09:22:07;;;;;;;2.58;1.35;;;24.80;87.90;;;;;;5120340;28;20035;-88
2021/07/18 09:24:46;;;;;;;4.65;1.58;;;24.90;85.20;;;;;;5110679;28;20042;-90
2021/07/18 09:27:18;;;;;;;8.57;1.50;;;24.90;86.50;;;;;;5136367;28;20034;-88
2021/07/18 09:29:55;;;;;;;2.05;1.05;;;25.00;85.50;;;;;;5122277;27;20031;-88
2021/07/18 09:32:35;;;;;;;2.75;1.10;;;25.10;86.00;;;;;;5114703;27;20131;-87
2021/07/18 09:35:11;;;;;;;1.98;1.08;;;25.20;86.00;;;;;;5136085;27;20053;-87
2021/07/18 09:37:49;;;;;;;3.08;1.60;;;25.30;88.10;;;;;;5134542;27;20462;-87
2021/07/18 09:40:20;;;;;;;2.30;1.38;;;25.40;86.80;;;;;;5130478;27;20072;-87
2021/07/18 09:45:55;;;;;;;4.13;1.80;;;25.40;82.90;;;;;;5131938;27;20363;-88
2021/07/18 09:48:46;;;;;;;2.63;1.40;;;25.40;83.70;;;;;;5117591;27;20130;-87
2021/07/18 09:51:25;;;;;;;2.85;1.20;;;25.50;83.90;;;;;;5125918;28;20403;-90
2021/07/18 09:54:10;;;;;;;2.92;1.30;;;25.60;82.70;;;;;;5120062;27;20097;-87
2021/07/18 09:56:36;;;;;;;2.53;1.40;;;25.60;84.10;;;;;;5123143;27;20394;-90
2021/07/18 09:59:04;;;;;;;4.47;1.50;;;25.80;83.60;;;;;;5110992;28;20043;-90
2021/07/18 10:01:31;;;;;;;2.45;1.20;;;25.80;83.80;;;;;;5123418;27;20095;-91
2021/07/18 10:03:57;;;;;;;3.30;1.30;;;25.90;84.20;;;;;;5122514;28;20035;-92
2021/07/18 10:06:27;;;;;;;2.53;1.13;;;26.00;82.90;;;;;;5131076;27;20039;-91
2021/07/18 10:08:55;;;;;;;4.95;1.30;;;26.10;81.70;;;;;;5128730;27;20043;-89
2021/07/18 10:11:26;;;;;;;2.33;1.38;;;26.20;81.80;;;;;;5132220;28;20055;-92
2021/07/18 10:13:54;;;;;;;3.15;1.30;;;26.10;81.60;;;;;;5131860;27;20151;-92
2021/07/18 10:16:24;;;;;;;3.15;1.40;;;26.10;82.10;;;;;;5128264;27;20031;-90
2021/07/18 10:18:51;;;;;;;3.95;1.30;;;26.10;82.50;;;;;;5124630;27;20047;-89
2021/07/18 10:21:20;;;;;;;2.95;1.48;;;26.10;82.60;;;;;;5143529;27;20077;-93
2021/07/18 10:23:47;;;;;;;4.82;1.33;;;26.00;82.30;;;;;;5146501;27;20031;-89
2021/07/18 10:26:14;;;;;;;1.58;1.23;;;26.00;83.30;;;;;;5139533;27;20050;-88
2021/07/18 10:28:41;;;;;;;3.00;1.60;;;26.00;82.10;;;;;;5124488;27;20408;-89
2021/07/18 10:31:16;;;;;;;3.83;1.75;;;26.20;82.70;;;;;;5132211;27;20031;-90
2021/07/18 10:33:43;;;;;;;4.00;1.05;;;26.30;81.80;;;;;;5121378;27;20039;-88
2021/07/18 10:36:10;;;;;;;2.08;1.33;;;26.30;82.80;;;;;;5123302;27;20043;-89
2021/07/18 10:38:36;;;;;;;1.27;0.93;;;26.40;80.50;;;;;;5125381;27;20031;-90
2021/07/18 10:41:02;;;;;;;2.95;1.05;;;26.40;79.60;;;;;;5144314;27;20042;-91
2021/07/18 10:43:48;;;;;;;1.40;1.10;;;26.50;80.60;;;;;;5148560;27;20615;-89
2021/07/18 10:46:16;;;;;;;3.60;1.13;;;26.60;78.50;;;;;;5143824;27;20045;-89
2021/07/18 10:48:49;;;;;;;1.90;1.00;;;26.80;76.60;;;;;;5124633;27;20106;-88
2021/07/18 10:51:20;;;;;;;1.15;1.02;;;26.90;80.90;;;;;;5146033;27;20039;-89
2021/07/18 10:53:50;;;;;;;1.80;1.00;;;27.10;78.20;;;;;;5133982;27;20074;-88
2021/07/18 10:56:40;;;;;;;4.07;0.85;;;27.30;74.00;;;;;;5123706;27;20039;-88
2021/07/18 10:59:05;;;;;;;3.45;1.40;;;27.40;73.10;;;;;;5123295;27;20046;-92
2021/07/18 11:01:34;;;;;;;4.90;1.10;;;27.40;72.90;;;;;;5122499;27;20131;-89
2021/07/18 11:03:59;;;;;;;1.98;0.95;;;27.50;73.40;;;;;;5140711;27;20437;-88
2021/07/18 11:06:32;;;;;;;1.38;1.00;;;27.50;73.90;;;;;;5123311;27;20038;-89
2021/07/18 11:09:13;;;;;;;3.03;1.27;;;27.60;74.50;;;;;;5123254;27;20082;-87
2021/07/18 11:11:48;;;;;;;4.13;1.40;;;27.70;72.70;;;;;;5123575;27;20158;-89
2021/07/18 11:14:35;;;;;;;1.60;1.10;;;27.70;71.60;;;;;;5115873;27;20067;-88
2021/07/18 11:17:25;;;;;;;3.67;1.00;;;27.80;73.40;;;;;;5128916;27;20069;-87
2021/07/18 11:19:59;;;;;;;1.75;1.23;;;27.80;72.60;;;;;;5120555;28;20066;-90
2021/07/18 11:23:01;;;;;;;1.35;1.10;;;27.70;72.90;;;;;;5102977;28;20059;-89
2021/07/18 11:25:54;;;;;;;2.95;1.17;;;27.80;73.10;;;;;;5121252;28;20046;-88
2021/07/18 11:31:12;;;;;;;2.17;1.20;;;28.00;72.20;;;;;;5120880;28;20041;-89
2021/07/18 11:33:43;;;;;;;3.03;1.55;;;28.10;72.90;;;;;;5116842;27;20130;-90
2021/07/18 11:36:09;;;;;;;2.40;1.25;;;28.00;72.10;;;;;;5140654;27;20035;-89
2021/07/18 11:38:35;;;;;;;3.13;1.00;;;28.10;73.60;;;;;;5140305;27;20107;-89
2021/07/18 11:41:14;;;;;;;2.20;0.90;;;28.10;70.70;;;;;;5122411;27;20370;-89
2021/07/18 11:43:45;;;;;;;1.52;0.98;;;28.10;71.20;;;;;;5140263;27;20035;-88
2021/07/18 11:46:11;;;;;;;1.88;1.02;;;28.10;72.10;;;;;;5140636;27;20031;-88
2021/07/18 11:48:38;;;;;;;2.22;1.17;;;28.20;71.80;;;;;;5140125;27;20375;-89
2021/07/18 11:51:18;;;;;;;2.95;1.35;;;28.20;71.90;;;;;;5122238;27;20293;-88
2021/07/18 11:53:45;;;;;;;1.58;1.00;;;28.30;71.50;;;;;;5122106;27;20401;-89
2021/07/18 11:56:23;;;;;;;2.15;1.05;;;28.30;70.90;;;;;;5140068;27;20067;-89
2021/07/18 11:58:52;;;;;;;1.98;1.00;;;28.50;72.50;;;;;;5140083;27;20138;-90
2021/07/18 12:01:26;;;;;;;1.77;1.02;;;28.60;70.30;;;;;;5122465;27;20666;-88
2021/07/18 12:03:52;;;;;;;1.80;0.80;;;28.60;70.30;;;;;;5130618;27;20049;-89
2021/07/18 12:06:19;;;;;;;1.33;1.00;;;28.70;70.30;;;;;;5136845;27;20367;-90
2021/07/18 12:08:45;;;;;;;3.53;1.10;;;28.80;72.00;;;;;;5141746;27;20131;-90
2021/07/18 12:11:13;;;;;;;3.38;0.80;;;28.80;68.30;;;;;;5140702;27;20050;-90
2021/07/18 12:13:43;;;;;;;4.40;0.73;;;28.70;69.70;;;;;;5121219;27;20063;-90
2021/07/18 12:16:10;;;;;;;1.67;0.80;;;28.80;68.00;;;;;;5139113;27;20062;-89
2021/07/18 12:18:50;;;;;;;1.33;0.75;;;28.90;68.80;;;;;;5122210;27;20297;-88
2021/07/18 12:21:24;;;;;;;2.03;1.02;;;29.00;67.80;;;;;;5139616;27;20035;-87
2021/07/18 12:24:09;;;;;;;3.50;0.80;;;29.10;67.20;;;;;;5139810;27;20031;-88
2021/07/18 12:26:35;;;;;;;1.65;0.77;;;28.90;68.00;;;;;;5121116;27;20038;-90
2021/07/18 12:29:05;;;;;;;1.98;1.55;;;28.90;68.10;;;;;;5139676;27;20039;-89
2021/07/18 12:31:31;;;;;;;2.70;1.10;;;29.00;70.50;;;;;;5139260;27;20039;-88
2021/07/18 12:33:57;;;;;;;1.98;1.10;;;29.10;67.40;;;;;;5121076;27;20039;-89
2021/07/18 12:36:23;;;;;;;2.08;0.93;;;29.20;66.60;;;;;;5121775;27;20111;-90
2021/07/18 12:38:48;;;;;;;1.95;0.95;;;29.10;66.10;;;;;;5127851;27;20054;-88
2021/07/18 12:41:14;;;;;;;1.00;0.82;;;29.20;67.10;;;;;;5132055;27;20035;-89
2021/07/18 12:43:40;;;;;;;2.30;1.20;;;29.00;65.80;;;;;;5140492;27;20046;-88
2021/07/18 12:46:08;;;;;;;3.22;0.98;;;29.00;66.10;;;;;;5148418;27;20039;-89
2021/07/18 12:48:34;;;;;;;1.77;0.98;;;29.10;67.30;;;;;;5126147;27;20412;-89
2021/07/18 12:51:15;;;;;;;1.30;0.88;;;29.10;65.50;;;;;;5138729;27;20035;-89
2021/07/18 12:53:42;;;;;;;1.77;1.17;;;29.20;68.70;;;;;;5120874;28;20374;-89
2021/07/18 12:56:09;;;;;;;1.00;0.70;;;29.30;68.60;;;;;;5138458;27;20114;-90
2021/07/18 12:58:41;;;;;;;3.35;0.90;;;29.40;66.80;;;;;;5108748;28;20097;-89
2021/07/18 13:01:16;;;;;;;8.60;1.20;;;29.40;66.00;;;;;;5130247;27;20114;-89
2021/07/18 13:03:46;;;;;;;1.65;0.80;;;29.50;69.40;;;;;;5120762;27;20053;-89
2021/07/18 13:06:14;;;;;;;0.80;0.70;;;29.70;68.00;;;;;;5138428;27;20103;-89